Hillsboro, West Virginia
Current Conditions -  °F | °C
As of 8:35 AM on Saturday 25 Oct 2014 (Local Time) from KLWB Reporting Station
Haze Haze  
Wind Chill: 32°   Ceiling: 700
Heat Index: 32°   Visibility: 1.7mi
Dew Point: 30°   Wind: 3mph
Humidity: 94%   Direction: 30°NNE
Pressure: 30.07"   Gusts: NA
Location:  38.14°N, 80.21°W
Report Text: KLWB 251235Z AUTO 03003KT 1 3/4SM BR VV007 00/M01 A3007 RMK AO2 T10011009
Loading
Personal Weather Stations






























Interactive Weather Map New forecast layout! Learn more

10-Day Weather Forecast

Advertisements
Track Severe Weather on mobile